sensor_id;sensor_type;location;lat;lon;timestamp;pressure;altitude;pressure_sealevel;temperature;humidity
8697;BME280;4385;48.848;8.924;2023-04-28T00:01:44;97200.91;;;18.06;100.00
8697;BME280;4385;48.848;8.924;2023-04-28T00:04:10;97202.59;;;18.07;100.00
8697;BME280;4385;48.848;8.924;2023-04-28T00:06:35;97198.41;;;18.05;100.00
8697;BME280;4385;48.848;8.924;2023-04-28T00:09:01;97190.78;;;18.03;100.00
8697;BME280;4385;48.848;8.924;2023-04-28T00:11:27;97196.72;;;18.04;100.00
8697;BME280;4385;48.848;8.924;2023-04-28T00:13:52;97190.78;;;18.03;100.00
8697;BME280;4385;48.848;8.924;2023-04-28T00:16:18;97195.94;;;18.02;100.00
8697;BME280;4385;48.848;8.924;2023-04-28T00:18:43;97193.41;;;18.00;100.00
8697;BME280;4385;48.848;8.924;2023-04-28T00:21:08;97190.88;;;18.00;100.00
8697;BME280;4385;48.848;8.924;2023-04-28T00:23:33;97187.47;;;18.00;100.00
8697;BME280;4385;48.848;8.924;2023-04-28T00:25:59;97184.94;;;18.00;100.00
8697;BME280;4385;48.848;8.924;2023-04-28T00:28:24;97184.09;;;17.99;100.00
8697;BME280;4385;48.848;8.924;2023-04-28T00:30:50;97184.94;;;18.00;100.00
8697;BME280;4385;48.848;8.924;2023-04-28T00:33:15;97178.97;;;17.99;100.00
8697;BME280;4385;48.848;8.924;2023-04-28T00:35:40;97178.97;;;17.99;100.00
8697;BME280;4385;48.848;8.924;2023-04-28T00:38:06;97183.22;;;18.00;100.00
8697;BME280;4385;48.848;8.924;2023-04-28T00:40:38;97179.81;;;18.00;100.00
8697;BME280;4385;48.848;8.924;2023-04-28T00:43:04;97173.06;;;17.99;100.00
8697;BME280;4385;48.848;8.924;2023-04-28T00:45:30;97171.38;;;17.98;100.00
8697;BME280;4385;48.848;8.924;2023-04-28T00:47:56;97169.72;;;17.97;100.00
8697;BME280;4385;48.848;8.924;2023-04-28T00:50:22;97164.59;;;17.97;100.00
8697;BME280;4385;48.848;8.924;2023-04-28T00:52:48;97165.47;;;17.97;100.00
8697;BME280;4385;48.848;8.924;2023-04-28T00:55:14;97160.28;;;18.00;100.00
8697;BME280;4385;48.848;8.924;2023-04-28T00:57:40;97155.13;;;18.02;100.00
8697;BME280;4385;48.848;8.924;2023-04-28T01:00:07;97156.84;;;18.01;100.00
8697;BME280;4385;48.848;8.924;2023-04-28T01:02:32;97164.50;;;18.01;100.00
8697;BME280;4385;48.848;8.924;2023-04-28T01:04:59;97161.88;;;18.04;100.00
8697;BME280;4385;48.848;8.924;2023-04-28T01:07:25;97159.41;;;18.01;100.00
8697;BME280;4385;48.848;8.924;2023-04-28T01:09:50;97154.28;;;18.01;100.00
8697;BME280;4385;48.848;8.924;2023-04-28T01:12:16;97144.97;;;18.00;100.00
8697;BME280;4385;48.848;8.924;2023-04-28T01:14:41;97144.97;;;18.00;100.00
8697;BME280;4385;48.848;8.924;2023-04-28T01:17:07;97138.19;;;17.99;100.00
8697;BME280;4385;48.848;8.924;2023-04-28T01:19:32;97136.44;;;18.01;100.00
8697;BME280;4385;48.848;8.924;2023-04-28T01:21:57;97138.13;;;18.02;100.00
8697;BME280;4385;48.848;8.924;2023-04-28T01:24:22;97136.44;;;18.01;100.00
8697;BME280;4385;48.848;8.924;2023-04-28T01:26:48;97122.03;;;18.00;100.00
8697;BME280;4385;48.848;8.924;2023-04-28T01:29:13;97122.84;;;18.01;100.00
8697;BME280;4385;48.848;8.924;2023-04-28T01:31:38;97126.25;;;18.01;100.00
8697;BME280;4385;48.848;8.924;2023-04-28T01:34:04;97129.69;;;18.00;100.00
8697;BME280;4385;48.848;8.924;2023-04-28T01:36:29;97128.00;;;17.99;100.00
8697;BME280;4385;48.848;8.924;2023-04-28T01:38:54;97128.84;;;18.00;100.00
8697;BME280;4385;48.848;8.924;2023-04-28T01:41:20;97120.31;;;18.01;100.00
8697;BME280;4385;48.848;8.924;2023-04-28T01:43:46;97111.84;;;18.00;100.00
8697;BME280;4385;48.848;8.924;2023-04-28T01:46:11;97111.88;;;17.99;100.00
8697;BME280;4385;48.848;8.924;2023-04-28T01:48:37;97115.25;;;17.99;100.00
8697;BME280;4385;48.848;8.924;2023-04-28T01:51:02;97115.25;;;17.99;100.00
8697;BME280;4385;48.848;8.924;2023-04-28T01:53:27;97116.94;;;18.00;100.00
8697;BME280;4385;48.848;8.924;2023-04-28T01:55:53;97114.38;;;18.00;100.00
8697;BME280;4385;48.848;8.924;2023-04-28T01:58:18;97102.50;;;17.99;100.00
8697;BME280;4385;48.848;8.924;2023-04-28T02:00:43;97107.59;;;17.99;100.00
8697;BME280;4385;48.848;8.924;2023-04-28T02:03:09;97091.44;;;18.00;100.00
8697;BME280;4385;48.848;8.924;2023-04-28T02:05:34;97104.19;;;18.00;100.00
8697;BME280;4385;48.848;8.924;2023-04-28T02:07:59;97098.22;;;18.01;100.00
8697;BME280;4385;48.848;8.924;2023-04-28T02:10:25;97099.09;;;18.00;100.00
8697;BME280;4385;48.848;8.924;2023-04-28T02:12:50;97104.19;;;18.00;100.00
8697;BME280;4385;48.848;8.924;2023-04-28T02:15:15;97099.09;;;18.00;100.00
8697;BME280;4385;48.848;8.924;2023-04-28T02:17:41;97098.25;;;18.00;100.00
8697;BME280;4385;48.848;8.924;2023-04-28T02:20:06;97098.25;;;18.00;100.00
8697;BME280;4385;48.848;8.924;2023-04-28T02:22:32;97099.94;;;17.99;100.00
8697;BME280;4385;48.848;8.924;2023-04-28T02:24:57;97086.44;;;17.97;100.00
8697;BME280;4385;48.848;8.924;2023-04-28T02:27:22;97084.66;;;17.99;100.00
8697;BME280;4385;48.848;8.924;2023-04-28T02:29:48;97089.75;;;17.99;100.00
8697;BME280;4385;48.848;8.924;2023-04-28T02:32:13;97088.97;;;17.97;100.00
8697;BME280;4385;48.848;8.924;2023-04-28T02:34:38;97093.22;;;17.97;100.00
8697;BME280;4385;48.848;8.924;2023-04-28T02:37:04;97100.91;;;17.95;100.00
8697;BME280;4385;48.848;8.924;2023-04-28T02:39:29;97105.13;;;17.96;100.00
8697;BME280;4385;48.848;8.924;2023-04-28T02:41:55;97106.88;;;17.95;100.00
8697;BME280;4385;48.848;8.924;2023-04-28T02:44:20;97106.91;;;17.94;100.00
8697;BME280;4385;48.848;8.924;2023-04-28T02:46:46;97110.28;;;17.94;100.00
8697;BME280;4385;48.848;8.924;2023-04-28T02:49:11;97115.38;;;17.94;100.00
8697;BME280;4385;48.848;8.924;2023-04-28T02:51:37;97115.38;;;17.94;100.00
8697;BME280;4385;48.848;8.924;2023-04-28T02:54:02;97115.31;;;17.96;100.00
8697;BME280;4385;48.848;8.924;2023-04-28T02:56:27;97111.88;;;17.99;100.00
8697;BME280;4385;48.848;8.924;2023-04-28T02:58:54;97102.59;;;17.96;100.00
8697;BME280;4385;48.848;8.924;2023-04-28T03:01:19;97110.22;;;17.96;100.00
8697;BME280;4385;48.848;8.924;2023-04-28T03:03:45;97101.72;;;17.97;100.00
8697;BME280;4385;48.848;8.924;2023-04-28T03:06:10;97102.59;;;17.96;100.00
8697;BME280;4385;48.848;8.924;2023-04-28T03:08:35;97102.59;;;17.96;100.00
8697;BME280;4385;48.848;8.924;2023-04-28T03:11:01;97096.66;;;17.95;100.00
8697;BME280;4385;48.848;8.924;2023-04-28T03:13:26;97100.97;;;17.93;100.00
8697;BME280;4385;48.848;8.924;2023-04-28T03:15:53;97098.41;;;17.93;100.00
8697;BME280;4385;48.848;8.924;2023-04-28T03:18:19;97090.81;;;17.92;100.00
8697;BME280;4385;48.848;8.924;2023-04-28T03:20:44;97080.59;;;17.92;100.00
8697;BME280;4385;48.848;8.924;2023-04-28T03:23:09;97082.25;;;17.93;100.00
8697;BME280;4385;48.848;8.924;2023-04-28T03:25:35;97081.44;;;17.92;100.00
8697;BME280;4385;48.848;8.924;2023-04-28T03:28:00;97073.84;;;17.91;100.00
8697;BME280;4385;48.848;8.924;2023-04-28T03:30:25;97075.50;;;17.92;100.00
8697;BME280;4385;48.848;8.924;2023-04-28T03:32:51;97078.06;;;17.92;100.00
8697;BME280;4385;48.848;8.924;2023-04-28T03:35:16;97076.34;;;17.92;100.00
8697;BME280;4385;48.848;8.924;2023-04-28T03:37:41;97072.16;;;17.90;100.00
8697;BME280;4385;48.848;8.924;2023-04-28T03:40:07;97068.84;;;17.88;100.00
8697;BME280;4385;48.848;8.924;2023-04-28T03:42:33;97065.41;;;17.89;100.00
8697;BME280;4385;48.848;8.924;2023-04-28T03:44:58;97065.44;;;17.87;100.00
8697;BME280;4385;48.848;8.924;2023-04-28T03:47:23;97056.94;;;17.87;100.00
8697;BME280;4385;48.848;8.924;2023-04-28T03:49:48;97059.50;;;17.87;100.00
8697;BME280;4385;48.848;8.924;2023-04-28T03:52:14;97056.13;;;17.86;100.00
8697;BME280;4385;48.848;8.924;2023-04-28T03:54:39;97051.84;;;17.87;100.00
8697;BME280;4385;48.848;8.924;2023-04-28T03:57:05;97053.53;;;17.88;100.00
8697;BME280;4385;48.848;8.924;2023-04-28T03:59:30;97040.78;;;17.88;100.00
8697;BME280;4385;48.848;8.924;2023-04-28T04:01:56;97055.19;;;17.89;100.00
8697;BME280;4385;48.848;8.924;2023-04-28T04:04:21;97060.28;;;17.89;100.00
8697;BME280;4385;48.848;8.924;2023-04-28T04:06:47;97053.50;;;17.89;100.00
8697;BME280;4385;48.848;8.924;2023-04-28T04:09:12;97056.03;;;17.89;100.00
8697;BME280;4385;48.848;8.924;2023-04-28T04:11:37;97048.44;;;17.88;100.00
8697;BME280;4385;48.848;8.924;2023-04-28T04:14:03;97047.59;;;17.87;100.00
8697;BME280;4385;48.848;8.924;2023-04-28T04:16:28;97049.28;;;17.87;100.00
8697;BME280;4385;48.848;8.924;2023-04-28T04:18:54;97047.59;;;17.87;100.00
8697;BME280;4385;48.848;8.924;2023-04-28T04:21:19;97053.53;;;17.88;100.00
8697;BME280;4385;48.848;8.924;2023-04-28T04:23:44;97045.84;;;17.89;100.00
8697;BME280;4385;48.848;8.924;2023-04-28T04:26:10;97046.66;;;17.90;100.00
8697;BME280;4385;48.848;8.924;2023-04-28T04:28:35;97041.56;;;17.90;100.00
8697;BME280;4385;48.848;8.924;2023-04-28T04:31:00;97045.84;;;17.89;100.00
8697;BME280;4385;48.848;8.924;2023-04-28T04:33:26;97042.41;;;17.90;100.00
8697;BME280;4385;48.848;8.924;2023-04-28T04:35:53;97040.72;;;17.91;100.00
8697;BME280;4385;48.848;8.924;2023-04-28T04:38:18;97050.03;;;17.92;100.00
8697;BME280;4385;48.848;8.924;2023-04-28T04:40:43;97046.59;;;17.93;100.00
8697;BME280;4385;48.848;8.924;2023-04-28T04:43:09;97041.41;;;17.96;100.00
8697;BME280;4385;48.848;8.924;2023-04-28T04:45:34;97025.28;;;17.95;100.00
8697;BME280;4385;48.848;8.924;2023-04-28T04:48:00;97024.44;;;17.95;100.00
8697;BME280;4385;48.848;8.924;2023-04-28T04:50:25;97033.75;;;17.96;100.00
8697;BME280;4385;48.848;8.924;2023-04-28T04:52:51;97037.91;;;18.00;100.00
8697;BME280;4385;48.848;8.924;2023-04-28T04:55:18;97038.72;;;18.01;100.00
8697;BME280;4385;48.848;8.924;2023-04-28T04:57:43;97040.38;;;18.03;100.00
8697;BME280;4385;48.848;8.924;2023-04-28T05:00:09;97048.84;;;18.04;100.00
8697;BME280;4385;48.848;8.924;2023-04-28T05:02:35;97043.75;;;18.04;100.00
8697;BME280;4385;48.848;8.924;2023-04-28T05:05:00;97049.69;;;18.04;100.00
8697;BME280;4385;48.848;8.924;2023-04-28T05:07:25;97042.91;;;18.03;100.00
8697;BME280;4385;48.848;8.924;2023-04-28T05:09:50;97036.13;;;18.02;100.00
8697;BME280;4385;48.848;8.924;2023-04-28T05:12:16;97041.22;;;18.02;100.00
8697;BME280;4385;48.848;8.924;2023-04-28T05:14:41;97039.56;;;18.01;100.00
8697;BME280;4385;48.848;8.924;2023-04-28T05:17:06;97045.47;;;18.03;100.00
8697;BME280;4385;48.848;8.924;2023-04-28T05:19:32;97044.59;;;18.04;100.00
8697;BME280;4385;48.848;8.924;2023-04-28T05:21:57;97044.59;;;18.04;100.00
8697;BME280;4385;48.848;8.924;2023-04-28T05:24:22;97047.13;;;18.04;100.00
8697;BME280;4385;48.848;8.924;2023-04-28T05:26:50;97041.16;;;18.05;100.00
8697;BME280;4385;48.848;8.924;2023-04-28T05:29:15;97042.00;;;18.06;100.00
8697;BME280;4385;48.848;8.924;2023-04-28T05:31:40;97040.28;;;18.06;100.00
8697;BME280;4385;48.848;8.924;2023-04-28T05:34:06;97036.84;;;18.07;100.00
8697;BME280;4385;48.848;8.924;2023-04-28T05:36:31;97040.25;;;18.08;100.00
8697;BME280;4385;48.848;8.924;2023-04-28T05:38:57;97029.13;;;18.11;100.00
8697;BME280;4385;48.848;8.924;2023-04-28T05:41:22;97026.56;;;18.12;100.00
8697;BME280;4385;48.848;8.924;2023-04-28T05:43:47;97035.81;;;18.15;100.00
8697;BME280;4385;48.848;8.924;2023-04-28T05:46:15;97033.28;;;18.15;100.00
8697;BME280;4385;48.848;8.924;2023-04-28T05:48:41;97025.63;;;18.15;100.00
8697;BME280;4385;48.848;8.924;2023-04-28T05:51:06;97031.56;;;18.15;100.00
8697;BME280;4385;48.848;8.924;2023-04-28T05:53:31;97032.47;;;18.14;100.00
8697;BME280;4385;48.848;8.924;2023-04-28T05:55:56;97023.97;;;18.14;100.00
8697;BME280;4385;48.848;8.924;2023-04-28T05:58:22;97026.47;;;18.15;100.00
8697;BME280;4385;48.848;8.924;2023-04-28T06:00:47;97027.28;;;18.17;100.00
8697;BME280;4385;48.848;8.924;2023-04-28T06:03:12;97027.31;;;18.16;100.00
8697;BME280;4385;48.848;8.924;2023-04-28T06:05:39;97020.53;;;18.15;100.00
8697;BME280;4385;48.848;8.924;2023-04-28T06:08:05;97028.16;;;18.15;100.00
8697;BME280;4385;48.848;8.924;2023-04-28T06:10:31;97024.75;;;18.16;100.00
8697;BME280;4385;48.848;8.924;2023-04-28T06:12:57;97037.50;;;18.16;100.00
8697;BME280;4385;48.848;8.924;2023-04-28T06:15:22;97034.06;;;18.17;100.00
8697;BME280;4385;48.848;8.924;2023-04-28T06:17:47;97017.94;;;18.16;100.00
8697;BME280;4385;48.848;8.924;2023-04-28T06:20:12;97014.53;;;18.17;100.00
8697;BME280;4385;48.848;8.924;2023-04-28T06:22:39;97021.25;;;18.20;100.00
8697;BME280;4385;48.848;8.924;2023-04-28T06:25:05;97021.25;;;18.20;100.00
8697;BME280;4385;48.848;8.924;2023-04-28T06:27:30;97025.44;;;18.21;100.00
8697;BME280;4385;48.848;8.924;2023-04-28T06:29:57;97015.25;;;18.21;100.00
8697;BME280;4385;48.848;8.924;2023-04-28T06:32:22;97019.50;;;18.22;100.00
8697;BME280;4385;48.848;8.924;2023-04-28T06:34:47;97021.16;;;18.23;100.00
8697;BME280;4385;48.848;8.924;2023-04-28T06:37:12;97013.47;;;18.25;100.00
8697;BME280;4385;48.848;8.924;2023-04-28T06:39:38;97007.47;;;18.26;100.00
8697;BME280;4385;48.848;8.924;2023-04-28T06:42:03;97020.16;;;18.27;100.00
8697;BME280;4385;48.848;8.924;2023-04-28T06:44:28;97010.81;;;18.28;100.00
8697;BME280;4385;48.848;8.924;2023-04-28T06:46:54;97006.56;;;18.28;100.00
8697;BME280;4385;48.848;8.924;2023-04-28T06:49:19;97003.13;;;18.29;100.00
8697;BME280;4385;48.848;8.924;2023-04-28T06:51:45;97006.56;;;18.28;100.00
8697;BME280;4385;48.848;8.924;2023-04-28T06:54:10;97000.63;;;18.28;100.00
8697;BME280;4385;48.848;8.924;2023-04-28T06:56:35;97003.13;;;18.29;100.00
8697;BME280;4385;48.848;8.924;2023-04-28T06:59:01;97004.75;;;18.32;100.00
8697;BME280;4385;48.848;8.924;2023-04-28T07:01:27;96998.88;;;18.30;100.00
8697;BME280;4385;48.848;8.924;2023-04-28T07:03:52;96996.28;;;18.31;100.00
8697;BME280;4385;48.848;8.924;2023-04-28T07:06:18;96997.13;;;18.30;100.00
8697;BME280;4385;48.848;8.924;2023-04-28T07:08:44;96990.28;;;18.32;100.00
8697;BME280;4385;48.848;8.924;2023-04-28T07:11:09;96987.72;;;18.32;100.00
8697;BME280;4385;48.848;8.924;2023-04-28T07:13:34;96988.56;;;18.33;100.00
8697;BME280;4385;48.848;8.924;2023-04-28T07:16:00;96993.63;;;18.35;100.00
8697;BME280;4385;48.848;8.924;2023-04-28T07:18:25;96992.78;;;18.34;100.00
8697;BME280;4385;48.848;8.924;2023-04-28T07:20:51;96992.78;;;18.34;100.00
8697;BME280;4385;48.848;8.924;2023-04-28T07:23:16;96989.38;;;18.34;100.00
8697;BME280;4385;48.848;8.924;2023-04-28T07:25:42;96989.38;;;18.34;100.00
8697;BME280;4385;48.848;8.924;2023-04-28T07:28:07;96987.63;;;18.36;100.00
8697;BME280;4385;48.848;8.924;2023-04-28T07:30:33;96990.22;;;18.34;100.00
8697;BME280;4385;48.848;8.924;2023-04-28T07:32:59;96992.75;;;18.36;100.00
8697;BME280;4385;48.848;8.924;2023-04-28T07:35:24;96985.94;;;18.36;100.00
8697;BME280;4385;48.848;8.924;2023-04-28T07:37:50;96986.75;;;18.37;100.00
8697;BME280;4385;48.848;8.924;2023-04-28T07:40:16;96990.13;;;18.37;100.00
8697;BME280;4385;48.848;8.924;2023-04-28T07:42:42;96996.09;;;18.38;100.00
8697;BME280;4385;48.848;8.924;2023-04-28T07:45:07;97002.00;;;18.38;100.00
8697;BME280;4385;48.848;8.924;2023-04-28T07:47:33;96997.69;;;18.40;100.00
8697;BME280;4385;48.848;8.924;2023-04-28T07:49:59;96997.66;;;18.42;100.00
8697;BME280;4385;48.848;8.924;2023-04-28T07:52:28;97001.00;;;18.44;100.00
8697;BME280;4385;48.848;8.924;2023-04-28T07:54:54;97001.00;;;18.44;100.00
8697;BME280;4385;48.848;8.924;2023-04-28T07:57:19;97009.47;;;18.44;100.00
8697;BME280;4385;48.848;8.924;2023-04-28T07:59:45;97006.97;;;18.43;100.00
8697;BME280;4385;48.848;8.924;2023-04-28T08:02:10;97014.63;;;18.43;100.00
8697;BME280;4385;48.848;8.924;2023-04-28T08:04:37;97019.72;;;18.43;100.00
8697;BME280;4385;48.848;8.924;2023-04-28T08:07:03;97023.16;;;18.42;100.00
8697;BME280;4385;48.848;8.924;2023-04-28T08:09:28;97027.38;;;18.43;100.00
8697;BME280;4385;48.848;8.924;2023-04-28T08:11:53;97035.97;;;18.40;100.00
8697;BME280;4385;48.848;8.924;2023-04-28T08:14:19;97039.41;;;18.39;100.00
8697;BME280;4385;48.848;8.924;2023-04-28T08:16:44;97047.00;;;18.41;100.00
8697;BME280;4385;48.848;8.924;2023-04-28T08:19:10;97049.56;;;18.41;100.00
8697;BME280;4385;48.848;8.924;2023-04-28T08:21:36;97052.94;;;18.41;100.00
8697;BME280;4385;48.848;8.924;2023-04-28T08:24:01;97055.47;;;18.41;100.00
8697;BME280;4385;48.848;8.924;2023-04-28T08:26:26;97052.13;;;18.41;100.00
8697;BME280;4385;48.848;8.924;2023-04-28T08:28:52;97052.94;;;18.41;100.00
8697;BME280;4385;48.848;8.924;2023-04-28T08:31:17;97053.78;;;18.42;100.00
8697;BME280;4385;48.848;8.924;2023-04-28T08:33:42;97055.44;;;18.43;100.00
8697;BME280;4385;48.848;8.924;2023-04-28T08:36:09;97055.41;;;18.44;100.00
8697;BME280;4385;48.848;8.924;2023-04-28T08:38:36;97057.94;;;18.44;100.00
8697;BME280;4385;48.848;8.924;2023-04-28T08:41:03;97060.44;;;18.46;100.00
8697;BME280;4385;48.848;8.924;2023-04-28T08:43:31;97062.13;;;18.47;100.00
8697;BME280;4385;48.848;8.924;2023-04-28T08:45:57;97062.13;;;18.47;100.00
8697;BME280;4385;48.848;8.924;2023-04-28T08:48:24;97074.84;;;18.49;100.00
8697;BME280;4385;48.848;8.924;2023-04-28T08:50:52;97063.81;;;18.48;100.00
8697;BME280;4385;48.848;8.924;2023-04-28T08:53:22;97068.00;;;18.49;100.00
8697;BME280;4385;48.848;8.924;2023-04-28T08:55:54;97065.47;;;18.49;100.00
8697;BME280;4385;48.848;8.924;2023-04-28T08:58:22;97072.25;;;18.50;100.00
8697;BME280;4385;48.848;8.924;2023-04-28T09:00:49;97067.16;;;18.50;100.00
8697;BME280;4385;48.848;8.924;2023-04-28T09:03:15;97069.72;;;18.50;100.00
8697;BME280;4385;48.848;8.924;2023-04-28T09:05:40;97077.34;;;18.50;100.00
8697;BME280;4385;48.848;8.924;2023-04-28T09:08:05;97074.84;;;18.49;100.00
8697;BME280;4385;48.848;8.924;2023-04-28T09:10:30;97071.47;;;18.48;100.00
8697;BME280;4385;48.848;8.924;2023-04-28T09:12:56;97069.78;;;18.47;100.00
8697;BME280;4385;48.848;8.924;2023-04-28T09:17:52;97078.25;;;18.48;100.00
8697;BME280;4385;48.848;8.924;2023-04-28T09:20:21;97080.78;;;18.49;100.00
8697;BME280;4385;48.848;8.924;2023-04-28T09:22:47;97062.09;;;18.49;100.00
8697;BME280;4385;48.848;8.924;2023-04-28T09:25:13;97067.16;;;18.50;100.00
8697;BME280;4385;48.848;8.924;2023-04-28T09:27:39;97068.81;;;18.51;100.00
8697;BME280;4385;48.848;8.924;2023-04-28T09:30:04;97073.91;;;18.51;100.00
8697;BME280;4385;48.848;8.924;2023-04-28T09:32:30;97073.06;;;18.51;100.00
8697;BME280;4385;48.848;8.924;2023-04-28T09:34:55;97078.22;;;18.49;100.00
8697;BME280;4385;48.848;8.924;2023-04-28T09:37:24;97070.56;;;18.49;100.00
8697;BME280;4385;48.848;8.924;2023-04-28T09:39:51;97074.81;;;18.50;100.00
8697;BME280;4385;48.848;8.924;2023-04-28T09:45:18;97067.88;;;18.54;100.00
8697;BME280;4385;48.848;8.924;2023-04-28T09:47:45;97071.28;;;18.54;100.00
8697;BME280;4385;48.848;8.924;2023-04-28T09:50:13;97069.56;;;18.55;100.00
8697;BME280;4385;48.848;8.924;2023-04-28T09:52:42;97066.13;;;18.56;100.00
8697;BME280;4385;48.848;8.924;2023-04-28T09:55:10;97068.63;;;18.57;100.00
8697;BME280;4385;48.848;8.924;2023-04-28T09:57:36;97068.63;;;18.57;100.00
8697;BME280;4385;48.848;8.924;2023-04-28T10:00:03;97069.53;;;18.56;100.00
8697;BME280;4385;48.848;8.924;2023-04-28T10:02:31;97066.09;;;18.57;100.00
8697;BME280;4385;48.848;8.924;2023-04-28T10:04:57;97059.31;;;18.56;100.00
8697;BME280;4385;48.848;8.924;2023-04-28T10:07:23;97067.84;;;18.55;100.00
8697;BME280;4385;48.848;8.924;2023-04-28T10:09:51;97061.88;;;18.56;100.00
8697;BME280;4385;48.848;8.924;2023-04-28T10:12:21;97060.19;;;18.55;100.00
8697;BME280;4385;48.848;8.924;2023-04-28T10:14:48;97056.81;;;18.55;100.00
8697;BME280;4385;48.848;8.924;2023-04-28T10:17:21;97057.63;;;18.55;100.00
8697;BME280;4385;48.848;8.924;2023-04-28T10:19:48;97059.28;;;18.58;100.00
8697;BME280;4385;48.848;8.924;2023-04-28T10:27:43;97056.69;;;18.60;100.00
8697;BME280;4385;48.848;8.924;2023-04-28T10:30:22;97058.28;;;18.62;100.00
8697;BME280;4385;48.848;8.924;2023-04-28T10:33:29;97056.59;;;18.63;100.00
8697;BME280;4385;48.848;8.924;2023-04-28T10:35:54;97051.50;;;18.63;100.00
8697;BME280;4385;48.848;8.924;2023-04-28T10:38:20;97056.59;;;18.63;100.00
8697;BME280;4385;48.848;8.924;2023-04-28T10:40:52;97061.69;;;18.63;100.00
8697;BME280;4385;48.848;8.924;2023-04-28T10:48:18;97063.25;;;18.67;100.00
8697;BME280;4385;48.848;8.924;2023-04-28T10:58:43;97056.41;;;18.69;100.00
8697;BME280;4385;48.848;8.924;2023-04-28T11:01:31;97058.09;;;18.68;100.00
8697;BME280;4385;48.848;8.924;2023-04-28T11:04:08;97061.50;;;18.69;100.00
8697;BME280;4385;48.848;8.924;2023-04-28T11:06:44;97065.72;;;18.70;100.00
8697;BME280;4385;48.848;8.924;2023-04-28T11:14:35;97071.53;;;18.75;100.00
8697;BME280;4385;48.848;8.924;2023-04-28T11:17:05;97064.69;;;18.76;100.00
8697;BME280;4385;48.848;8.924;2023-04-28T11:19:36;97070.66;;;18.76;100.00
8697;BME280;4385;48.848;8.924;2023-04-28T11:22:04;97062.13;;;18.76;100.00
8697;BME280;4385;48.848;8.924;2023-04-28T11:24:35;97063.88;;;18.75;100.00
8697;BME280;4385;48.848;8.924;2023-04-28T11:27:01;97058.78;;;18.75;100.00
8697;BME280;4385;48.848;8.924;2023-04-28T11:29:37;97066.44;;;18.75;100.00
8697;BME280;4385;48.848;8.924;2023-04-28T11:32:04;97064.66;;;18.77;100.00
8697;BME280;4385;48.848;8.924;2023-04-28T11:34:29;97062.97;;;18.76;100.00
8697;BME280;4385;48.848;8.924;2023-04-28T11:36:55;97064.66;;;18.77;100.00
8697;BME280;4385;48.848;8.924;2023-04-28T11:39:28;97062.03;;;18.79;100.00
8697;BME280;4385;48.848;8.924;2023-04-28T11:41:55;97068.84;;;18.80;100.00
8697;BME280;4385;48.848;8.924;2023-04-28T11:44:22;97062.88;;;18.79;100.00
8697;BME280;4385;48.848;8.924;2023-04-28T11:46:59;97049.25;;;18.80;100.00
8697;BME280;4385;48.848;8.924;2023-04-28T11:49:26;97062.81;;;18.82;100.00
8697;BME280;4385;48.848;8.924;2023-04-28T11:52:03;97055.16;;;18.82;100.00
8697;BME280;4385;48.848;8.924;2023-04-28T11:54:30;97055.94;;;18.85;100.00
8697;BME280;4385;48.848;8.924;2023-04-28T11:56:58;97056.72;;;18.87;100.00
8697;BME280;4385;48.848;8.924;2023-04-28T11:59:26;97059.25;;;18.87;100.00
8697;BME280;4385;48.848;8.924;2023-04-28T12:01:54;97052.41;;;18.89;100.00
8697;BME280;4385;48.848;8.924;2023-04-28T12:04:34;97048.13;;;18.89;100.00
8697;BME280;4385;48.848;8.924;2023-04-28T12:07:08;97046.44;;;18.88;100.00
8697;BME280;4385;48.848;8.924;2023-04-28T12:09:45;97037.94;;;18.89;100.00
8697;BME280;4385;48.848;8.924;2023-04-28T12:12:28;97046.41;;;18.90;100.00
8697;BME280;4385;48.848;8.924;2023-04-28T12:14:58;97035.38;;;18.89;100.00
8697;BME280;4385;48.848;8.924;2023-04-28T12:17:27;97046.41;;;18.90;100.00
8697;BME280;4385;48.848;8.924;2023-04-28T12:19:53;97045.53;;;18.91;100.00
8697;BME280;4385;48.848;8.924;2023-04-28T12:22:20;97050.66;;;18.91;100.00
8697;BME280;4385;48.848;8.924;2023-04-28T12:24:45;97054.00;;;18.91;100.00
8697;BME280;4385;48.848;8.924;2023-04-28T12:27:20;97062.50;;;18.92;100.00
8697;BME280;4385;48.848;8.924;2023-04-28T12:29:49;97065.97;;;18.91;100.00
8697;BME280;4385;48.848;8.924;2023-04-28T12:32:16;97062.50;;;18.92;100.00
8697;BME280;4385;48.848;8.924;2023-04-28T12:34:44;97058.22;;;18.94;100.00
8697;BME280;4385;48.848;8.924;2023-04-28T12:37:10;97045.44;;;18.94;100.00
8697;BME280;4385;48.848;8.924;2023-04-28T12:39:38;97058.16;;;18.96;100.00
8697;BME280;4385;48.848;8.924;2023-04-28T12:42:03;97047.94;;;18.96;100.00
8697;BME280;4385;48.848;8.924;2023-04-28T12:44:35;97045.34;;;18.97;100.00
8697;BME280;4385;48.848;8.924;2023-04-28T12:47:08;97048.75;;;18.96;100.00
8697;BME280;4385;48.848;8.924;2023-04-28T12:49:34;97042.84;;;18.96;100.00
8697;BME280;4385;48.848;8.924;2023-04-28T12:52:00;97037.72;;;18.96;100.00
8697;BME280;4385;48.848;8.924;2023-04-28T12:54:26;97021.56;;;18.95;100.00
8697;BME280;4385;48.848;8.924;2023-04-28T12:56:51;97019.03;;;18.95;100.00
8697;BME280;4385;48.848;8.924;2023-04-28T12:59:18;97001.16;;;18.95;100.00
8697;BME280;4385;48.848;8.924;2023-04-28T13:01:44;97011.34;;;18.95;100.00
8697;BME280;4385;48.848;8.924;2023-04-28T13:04:09;97012.25;;;18.94;100.00
8697;BME280;4385;48.848;8.924;2023-04-28T13:06:34;97020.78;;;18.93;100.00
8697;BME280;4385;48.848;8.924;2023-04-28T13:09:00;97018.22;;;18.93;100.00
8697;BME280;4385;48.848;8.924;2023-04-28T13:11:25;97014.81;;;18.94;100.00
8697;BME280;4385;48.848;8.924;2023-04-28T13:13:52;97025.03;;;18.94;100.00
8697;BME280;4385;48.848;8.924;2023-04-28T13:16:17;97037.78;;;18.94;100.00
8697;BME280;4385;48.848;8.924;2023-04-28T13:18:43;97035.13;;;18.97;100.00
8697;BME280;4385;48.848;8.924;2023-04-28T13:21:08;97030.03;;;18.97;100.00
8697;BME280;4385;48.848;8.924;2023-04-28T13:23:33;97025.69;;;18.99;100.00
8697;BME280;4385;48.848;8.924;2023-04-28T13:25:58;97024.81;;;19.00;100.00
8697;BME280;4385;48.848;8.924;2023-04-28T13:28:24;97025.63;;;19.01;100.00
8697;BME280;4385;48.848;8.924;2023-04-28T13:30:49;97026.47;;;19.01;100.00
8697;BME280;4385;48.848;8.924;2023-04-28T13:33:15;97023.03;;;19.02;100.00
8697;BME280;4385;48.848;8.924;2023-04-28T13:35:40;97029.84;;;19.03;100.00